createdAt,value
2023-02-03T00:00:54.337Z,0.5
2023-02-03T00:02:02.799Z,0.5
2023-02-03T00:03:11.084Z,0.5
2023-02-03T00:04:19.590Z,0.4
2023-02-03T00:05:27.941Z,0.4
2023-02-03T00:06:36.411Z,0.4
2023-02-03T00:07:44.860Z,0.7
2023-02-03T00:08:53.183Z,0.7
2023-02-03T00:10:01.543Z,0.7
2023-02-03T00:11:10.097Z,0.3
2023-02-03T00:12:18.445Z,0.3
2023-02-03T00:13:26.799Z,0.3
2023-02-03T00:14:35.294Z,0.4
2023-02-03T00:15:43.655Z,0.4
2023-02-03T00:16:51.999Z,0.4
2023-02-03T00:18:00.548Z,0.5
2023-02-03T00:19:09.487Z,0.5
2023-02-03T00:20:17.802Z,0.5
2023-02-03T00:21:26.377Z,0.6
2023-02-03T00:22:34.740Z,0.6
2023-02-03T00:23:43.066Z,0.6
2023-02-03T00:24:51.617Z,0.6
2023-02-03T00:25:59.991Z,0.6
2023-02-03T00:27:08.350Z,0.6
2023-02-03T00:28:16.942Z,0.5
2023-02-03T00:29:25.268Z,0.5
2023-02-03T00:30:33.611Z,0.5
2023-02-03T00:31:42.262Z,0.5
2023-02-03T00:32:50.507Z,0.5
2023-02-03T00:33:58.855Z,0.5
2023-02-03T00:35:07.411Z,0.5
2023-02-03T00:36:15.758Z,0.5
2023-02-03T00:37:24.103Z,0.5
2023-02-03T00:38:32.680Z,0.5
2023-02-03T00:39:40.989Z,0.5
2023-02-03T00:40:49.328Z,0.5
2023-02-03T00:41:57.909Z,0.4
2023-02-03T00:43:06.269Z,0.4
2023-02-03T00:44:14.597Z,0.4
2023-02-03T00:45:23.148Z,0.4
2023-02-03T00:46:31.463Z,0.4
2023-02-03T00:47:39.816Z,0.4
2023-02-03T00:48:48.380Z,0.4
2023-02-03T00:49:56.722Z,0.4
2023-02-03T00:51:05.100Z,0.4
2023-02-03T00:52:13.629Z,0.5
2023-02-03T00:53:21.969Z,0.5
2023-02-03T00:54:32.610Z,0.5
2023-02-03T00:55:38.890Z,0.5
2023-02-03T00:56:47.230Z,0.5
2023-02-03T00:57:55.570Z,0.5
2023-02-03T00:59:04.123Z,0.5
2023-02-03T01:00:12.483Z,0.5
2023-02-03T01:01:20.863Z,0.5
2023-02-03T01:02:29.506Z,0.4
2023-02-03T01:03:37.712Z,0.4
2023-02-03T01:04:46.061Z,0.4
2023-02-03T01:05:54.610Z,0.4
2023-02-03T01:07:02.970Z,0.4
2023-02-03T01:08:11.307Z,0.4
2023-02-03T01:09:19.861Z,0.5
2023-02-03T01:10:28.577Z,0.5
2023-02-03T01:11:36.541Z,0.5
2023-02-03T01:12:45.081Z,0.5
2023-02-03T01:13:53.441Z,0.5
2023-02-03T01:15:01.781Z,0.5
2023-02-03T01:16:10.343Z,0.5
2023-02-03T01:17:18.677Z,0.5
2023-02-03T01:18:27.071Z,0.5
2023-02-03T01:19:35.648Z,0.6
2023-02-03T01:20:43.974Z,0.6
2023-02-03T01:21:52.349Z,0.6
2023-02-03T01:23:00.904Z,0.7
2023-02-03T01:24:09.241Z,0.7
2023-02-03T01:25:17.600Z,0.7
2023-02-03T01:26:26.157Z,0.7
2023-02-03T01:27:34.486Z,0.7
2023-02-03T01:28:42.847Z,0.7
2023-02-03T01:29:51.377Z,1
2023-02-03T01:30:59.793Z,1
2023-02-03T01:32:08.101Z,1
2023-02-03T01:33:16.647Z,1.4
2023-02-03T01:34:24.967Z,1.4
2023-02-03T01:35:33.297Z,1.4
2023-02-03T01:36:41.834Z,1.4
2023-02-03T01:37:50.194Z,1.4
2023-02-03T01:38:58.560Z,1.4
2023-02-03T01:40:07.095Z,1.8
2023-02-03T01:41:15.428Z,1.8
2023-02-03T01:42:23.823Z,1.8
2023-02-03T01:43:32.339Z,2.3
2023-02-03T01:44:40.679Z,2.3
2023-02-03T01:45:49.028Z,2.3
2023-02-03T01:46:57.594Z,2.2
2023-02-03T01:48:05.932Z,2.2
2023-02-03T01:49:14.258Z,2.2
2023-02-03T01:50:22.821Z,2.4
2023-02-03T01:51:31.158Z,2.4
2023-02-03T01:52:39.508Z,2.4
2023-02-03T01:53:48.054Z,2.5
2023-02-03T01:54:56.409Z,2.5
2023-02-03T01:56:04.740Z,2.5
2023-02-03T01:57:13.324Z,2.4
2023-02-03T01:58:21.675Z,2.4
2023-02-03T01:59:31.006Z,2.4
2023-02-03T02:00:39.558Z,2.6
2023-02-03T02:01:47.992Z,2.6
2023-02-03T02:02:56.367Z,2.6
2023-02-03T02:04:04.803Z,2.3
2023-02-03T02:05:13.143Z,2.3
2023-02-03T02:06:21.484Z,2.3
2023-02-03T02:07:30.053Z,2.4
2023-02-03T02:08:38.386Z,2.4
2023-02-03T02:09:46.729Z,2.4
2023-02-03T02:10:55.293Z,2.4
2023-02-03T02:12:03.649Z,2.4
2023-02-03T02:13:11.985Z,2.4
2023-02-03T02:14:20.589Z,2.3
2023-02-03T02:15:28.930Z,2.3
2023-02-03T02:16:37.240Z,2.3
2023-02-03T02:17:45.800Z,2.5
2023-02-03T02:18:54.148Z,2.5
2023-02-03T02:20:02.501Z,2.5
2023-02-03T02:21:11.051Z,2.5
2023-02-03T02:22:19.414Z,2.5
2023-02-03T02:23:27.753Z,2.5
2023-02-03T02:24:36.310Z,2.3
2023-02-03T02:25:44.653Z,2.3
2023-02-03T02:26:53.024Z,2.3
2023-02-03T02:28:01.665Z,2.6
2023-02-03T02:29:09.906Z,2.6
2023-02-03T02:30:18.285Z,2.6
2023-02-03T02:31:26.951Z,2.2
2023-02-03T02:32:35.162Z,2.2
2023-02-03T02:33:43.499Z,2.2
2023-02-03T02:34:52.061Z,2
2023-02-03T02:36:00.434Z,2
2023-02-03T02:37:08.781Z,2
2023-02-03T02:38:17.331Z,2.4
2023-02-03T02:39:25.694Z,2.4
2023-02-03T02:40:34.029Z,2.4
2023-02-03T02:41:42.581Z,2.6
2023-02-03T02:42:50.944Z,2.6
2023-02-03T02:43:59.290Z,2.6
2023-02-03T02:45:07.838Z,2.8
2023-02-03T02:46:16.228Z,2.8
2023-02-03T02:47:24.520Z,2.8
2023-02-03T02:48:33.106Z,3
2023-02-03T02:49:41.459Z,3
2023-02-03T02:50:49.826Z,3
2023-02-03T02:51:58.365Z,3
2023-02-03T02:53:06.713Z,3
2023-02-03T02:54:15.056Z,3
2023-02-03T02:55:23.608Z,3.8
2023-02-03T02:56:31.950Z,3.8
2023-02-03T02:57:40.292Z,3.8
2023-02-03T02:58:48.861Z,4
2023-02-03T02:59:57.252Z,4
2023-02-03T03:01:05.576Z,4
2023-02-03T03:02:14.147Z,4.5
2023-02-03T03:03:22.502Z,4.5
2023-02-03T03:04:30.900Z,4.5
2023-02-03T03:05:39.402Z,4.4
2023-02-03T03:06:47.744Z,4.4
2023-02-03T03:07:56.094Z,4.4
2023-02-03T03:09:04.649Z,4.2
2023-02-03T03:10:12.999Z,4.2
2023-02-03T03:11:21.349Z,4.2
2023-02-03T03:12:29.901Z,4.3
2023-02-03T03:13:38.258Z,4.3
2023-02-03T03:14:46.604Z,4.3
2023-02-03T03:15:55.166Z,4
2023-02-03T03:17:03.530Z,4
2023-02-03T03:18:11.915Z,4
2023-02-03T03:19:20.433Z,4.4
2023-02-03T03:20:28.997Z,4.4
2023-02-03T03:21:37.113Z,4.4
2023-02-03T03:22:45.673Z,4
2023-02-03T03:23:54.027Z,4
2023-02-03T03:25:02.369Z,4
2023-02-03T03:26:10.919Z,3.7
2023-02-03T03:27:19.249Z,3.7
2023-02-03T03:28:27.604Z,3.7
2023-02-03T03:29:36.161Z,3.8
2023-02-03T03:30:44.507Z,3.8
2023-02-03T03:31:52.912Z,3.8
2023-02-03T03:33:01.394Z,4.1
2023-02-03T03:34:09.765Z,4.1
2023-02-03T03:35:18.084Z,4.1
2023-02-03T03:36:26.621Z,4.2
2023-02-03T03:37:34.970Z,4.2
2023-02-03T03:38:43.338Z,4.2
2023-02-03T03:39:51.893Z,4.6
2023-02-03T03:41:00.224Z,4.6
2023-02-03T03:42:08.555Z,4.6
2023-02-03T03:43:17.109Z,5.1
2023-02-03T03:44:25.466Z,5.1
2023-02-03T03:45:33.822Z,5.1
2023-02-03T03:46:42.413Z,5.2
2023-02-03T03:47:50.713Z,5.2
2023-02-03T03:48:59.056Z,5.2
2023-02-03T03:50:07.630Z,5.3
2023-02-03T03:51:15.961Z,5.3
2023-02-03T03:52:24.271Z,5.3
2023-02-03T03:53:32.830Z,6
2023-02-03T03:54:41.169Z,6
2023-02-03T03:55:49.510Z,6
2023-02-03T03:56:58.072Z,5.9
2023-02-03T03:58:06.408Z,5.9
2023-02-03T03:59:14.754Z,5.9
2023-02-03T04:00:23.313Z,5.6
2023-02-03T04:01:31.808Z,5.6
2023-02-03T04:02:40.096Z,5.6
2023-02-03T04:03:48.558Z,5.3
2023-02-03T04:04:56.904Z,5.3
2023-02-03T04:06:05.280Z,5.3
2023-02-03T04:07:13.811Z,4.8
2023-02-03T04:08:22.195Z,4.8
2023-02-03T04:09:30.512Z,4.8
2023-02-03T04:10:39.070Z,4.9
2023-02-03T04:11:47.397Z,4.9
2023-02-03T04:12:55.732Z,4.9
2023-02-03T04:14:04.299Z,4.3
2023-02-03T04:15:12.652Z,4.3
2023-02-03T04:16:21.023Z,4.3
2023-02-03T04:17:29.544Z,4.9
2023-02-03T04:18:37.904Z,4.9
2023-02-03T04:19:46.270Z,4.9
2023-02-03T04:20:54.827Z,4.8
2023-02-03T04:22:03.196Z,4.8
2023-02-03T04:23:11.521Z,4.8
2023-02-03T04:24:20.074Z,4.1
2023-02-03T04:25:28.413Z,4.1
2023-02-03T04:26:36.753Z,4.1
2023-02-03T04:27:45.407Z,4.3
2023-02-03T04:28:53.739Z,4.3
2023-02-03T04:30:02.144Z,4.3
2023-02-03T04:31:12.215Z,4.1
2023-02-03T04:32:20.462Z,4.1
2023-02-03T04:33:28.827Z,4.1
2023-02-03T04:34:37.390Z,3.4
2023-02-03T04:35:45.717Z,3.4
2023-02-03T04:36:54.079Z,3.4
2023-02-03T04:38:02.649Z,3.3
2023-02-03T04:39:10.987Z,3.3
2023-02-03T04:40:19.346Z,3.3
2023-02-03T04:41:27.896Z,3.3
2023-02-03T04:42:36.245Z,3.3
2023-02-03T04:43:44.583Z,3.3
2023-02-03T04:44:53.135Z,3.1
2023-02-03T04:46:01.549Z,3.1
2023-02-03T04:47:09.819Z,3.1
2023-02-03T04:48:18.355Z,2.5
2023-02-03T04:49:26.701Z,2.5
2023-02-03T04:50:35.047Z,2.5
2023-02-03T04:51:43.595Z,2.4
2023-02-03T04:52:51.929Z,2.4
2023-02-03T04:54:00.318Z,2.4
2023-02-03T04:55:08.846Z,2.3
2023-02-03T04:56:17.169Z,2.3
2023-02-03T04:57:25.515Z,2.3
2023-02-03T04:58:34.055Z,2.4
2023-02-03T04:59:42.404Z,2.4
2023-02-03T05:00:50.884Z,2.4
2023-02-03T05:01:59.301Z,2.3
2023-02-03T05:03:07.658Z,2.3
2023-02-03T05:04:15.968Z,2.3
2023-02-03T05:05:24.531Z,1.9
2023-02-03T05:06:32.888Z,1.9
2023-02-03T05:07:41.255Z,1.9
2023-02-03T05:08:49.845Z,2
2023-02-03T05:09:58.219Z,2
2023-02-03T05:11:06.780Z,2
2023-02-03T05:12:15.145Z,1.6
2023-02-03T05:13:23.509Z,1.6
2023-02-03T05:14:31.866Z,1.6
2023-02-03T05:15:40.474Z,1.7
2023-02-03T05:16:48.871Z,1.7
2023-02-03T05:17:57.165Z,1.7
2023-02-03T05:19:05.728Z,1.3
2023-02-03T05:20:14.052Z,1.3
2023-02-03T05:21:22.381Z,1.3
2023-02-03T05:22:30.943Z,1.2
2023-02-03T05:23:39.270Z,1.2
2023-02-03T05:24:47.625Z,1.2
2023-02-03T05:25:56.186Z,1.1
2023-02-03T05:27:04.481Z,1.1
2023-02-03T05:28:12.893Z,1.1
2023-02-03T05:29:21.418Z,1
2023-02-03T05:30:30.109Z,1
2023-02-03T05:31:38.204Z,1
2023-02-03T05:32:46.679Z,1.3
2023-02-03T05:33:55.015Z,1.3
2023-02-03T05:35:03.351Z,1.3
2023-02-03T05:36:11.879Z,1.2
2023-02-03T05:37:20.214Z,1.2
2023-02-03T05:38:28.533Z,1.2
2023-02-03T05:39:37.097Z,1.3
2023-02-03T05:40:45.435Z,1.3
2023-02-03T05:41:55.390Z,1.3
2023-02-03T05:43:02.307Z,1.2
2023-02-03T05:44:10.647Z,1.2
2023-02-03T05:45:18.982Z,1.2
2023-02-03T05:46:27.492Z,1.1
2023-02-03T05:47:35.820Z,1.1
2023-02-03T05:48:44.159Z,1.1
2023-02-03T05:49:52.695Z,1
2023-02-03T05:51:01.014Z,1
2023-02-03T05:52:09.338Z,1
2023-02-03T05:53:17.846Z,1.1
2023-02-03T05:54:26.210Z,1.1
2023-02-03T05:55:34.547Z,1.1
2023-02-03T05:56:43.046Z,1.3
2023-02-03T05:57:51.419Z,1.3
2023-02-03T05:58:59.682Z,1.3
2023-02-03T06:00:08.243Z,1.3
2023-02-03T06:01:16.555Z,1.3
2023-02-03T06:02:24.866Z,1.3
2023-02-03T06:03:33.461Z,1.2
2023-02-03T06:04:41.768Z,1.2
2023-02-03T06:05:50.074Z,1.2
2023-02-03T06:06:58.572Z,1.5
2023-02-03T06:08:06.888Z,1.5
2023-02-03T06:09:15.229Z,1.5
2023-02-03T06:10:23.766Z,1.2
2023-02-03T06:11:32.103Z,1.2
2023-02-03T06:12:40.423Z,1.2
2023-02-03T06:13:48.984Z,1.2
2023-02-03T06:14:57.282Z,1.2
2023-02-03T06:16:05.613Z,1.2
2023-02-03T06:17:14.161Z,1.1
2023-02-03T06:18:22.466Z,1.1
2023-02-03T06:19:30.779Z,1.1
2023-02-03T06:20:39.327Z,1.5
2023-02-03T06:21:47.648Z,1.5
2023-02-03T06:22:55.969Z,1.5
2023-02-03T06:24:04.502Z,50.799999
2023-02-03T06:25:13.292Z,50.799999
2023-02-03T06:26:21.113Z,50.799999
2023-02-03T06:27:29.661Z,5
2023-02-03T06:28:37.990Z,5
2023-02-03T06:29:46.337Z,5
2023-02-03T06:30:54.917Z,6.9
2023-02-03T06:32:03.329Z,6.9
2023-02-03T06:33:11.499Z,6.9
2023-02-03T06:34:20.028Z,3.9
2023-02-03T06:35:28.355Z,3.9
2023-02-03T06:36:36.661Z,3.9
2023-02-03T06:37:45.184Z,2.1
2023-02-03T06:38:53.525Z,2.1
2023-02-03T06:40:01.848Z,2.1
2023-02-03T06:41:10.366Z,2.3
2023-02-03T06:42:18.683Z,2.3
2023-02-03T06:43:26.992Z,2.3
2023-02-03T06:44:35.524Z,3
2023-02-03T06:45:43.978Z,3
2023-02-03T06:46:52.191Z,3
2023-02-03T06:48:00.736Z,6.2
2023-02-03T06:49:09.056Z,6.2
2023-02-03T06:50:17.387Z,6.2
2023-02-03T06:51:25.915Z,4.4
2023-02-03T06:52:34.248Z,4.4
2023-02-03T06:53:42.565Z,4.4
2023-02-03T06:54:51.093Z,4.2
2023-02-03T06:55:59.403Z,4.2
2023-02-03T06:57:07.716Z,4.2
2023-02-03T06:58:16.307Z,9
2023-02-03T06:59:24.603Z,9
2023-02-03T07:00:33.003Z,9
2023-02-03T07:01:41.576Z,27.1
2023-02-03T07:02:49.831Z,27.1
2023-02-03T07:03:58.117Z,27.1
2023-02-03T07:05:06.653Z,4.7
2023-02-03T07:06:14.982Z,4.7
2023-02-03T07:07:23.291Z,4.7
2023-02-03T07:08:31.837Z,2.4
2023-02-03T07:09:40.151Z,2.4
2023-02-03T07:10:48.489Z,2.4
2023-02-03T07:11:57.041Z,6.1
2023-02-03T07:13:05.342Z,6.1
2023-02-03T07:14:13.661Z,6.1
2023-02-03T07:15:22.197Z,9.4
2023-02-03T07:16:30.517Z,9.4
2023-02-03T07:17:38.866Z,9.4
2023-02-03T07:18:48.126Z,10.9
2023-02-03T07:19:55.696Z,10.9
2023-02-03T07:21:04.008Z,10.9
2023-02-03T07:22:12.537Z,4.8
2023-02-03T07:23:20.844Z,4.8
2023-02-03T07:24:29.197Z,4.8
2023-02-03T07:25:37.693Z,3.9
2023-02-03T07:26:46.025Z,3.9
2023-02-03T07:27:54.422Z,3.9
2023-02-03T07:29:02.899Z,16.700001
2023-02-03T07:30:11.235Z,16.700001
2023-02-03T07:31:19.686Z,16.700001
2023-02-03T07:32:28.084Z,13.7
2023-02-03T07:33:36.439Z,13.7
2023-02-03T07:34:44.727Z,13.7
2023-02-03T07:35:53.257Z,8.9
2023-02-03T07:37:01.587Z,8.9
2023-02-03T07:38:09.904Z,8.9
2023-02-03T07:39:18.439Z,3.5
2023-02-03T07:40:27.018Z,3.5
2023-02-03T07:41:35.069Z,3.5
2023-02-03T07:42:43.607Z,3.9
2023-02-03T07:43:51.926Z,3.9
2023-02-03T07:45:00.257Z,3.9
2023-02-03T07:46:08.869Z,4.3
2023-02-03T07:47:17.095Z,4.3
2023-02-03T07:48:25.418Z,4.3
2023-02-03T07:49:33.970Z,25.9
2023-02-03T07:50:42.294Z,25.9
2023-02-03T07:51:50.592Z,25.9
2023-02-03T07:52:59.114Z,3.8
2023-02-03T07:54:07.447Z,3.8
2023-02-03T07:55:15.760Z,3.8
2023-02-03T07:56:24.275Z,3.4
2023-02-03T07:57:32.592Z,3.4
2023-02-03T07:58:40.900Z,3.4
2023-02-03T07:59:49.434Z,3.7
2023-02-03T08:00:57.764Z,3.7
2023-02-03T08:02:06.146Z,3.7
2023-02-03T08:03:14.592Z,3.9
2023-02-03T08:04:22.906Z,3.9
2023-02-03T08:05:31.270Z,3.9
2023-02-03T08:06:39.767Z,6.6
2023-02-03T08:07:48.072Z,6.6
2023-02-03T08:08:56.381Z,6.6
2023-02-03T08:10:04.933Z,3.7
2023-02-03T08:11:13.231Z,3.7
2023-02-03T08:12:21.553Z,3.7
2023-02-03T08:13:30.077Z,3.3
2023-02-03T08:14:38.401Z,3.3
2023-02-03T08:15:46.766Z,3.3
2023-02-03T08:16:55.255Z,3
2023-02-03T08:18:03.590Z,3
2023-02-03T08:19:11.908Z,3
2023-02-03T08:20:20.428Z,3.5
2023-02-03T08:21:28.765Z,3.5
2023-02-03T08:22:37.061Z,3.5
2023-02-03T08:23:45.672Z,3.2
2023-02-03T08:24:53.958Z,3.2
2023-02-03T08:26:02.313Z,3.2
2023-02-03T08:27:10.897Z,3.7
2023-02-03T08:28:19.261Z,3.7
2023-02-03T08:29:27.490Z,3.7
2023-02-03T08:30:36.051Z,9.7
2023-02-03T08:31:44.421Z,9.7
2023-02-03T08:32:52.675Z,9.7
2023-02-03T08:34:01.225Z,5.5
2023-02-03T08:35:09.540Z,5.5
2023-02-03T08:36:17.863Z,5.5
2023-02-03T08:37:26.435Z,4.9
2023-02-03T08:38:34.754Z,4.9
2023-02-03T08:39:43.079Z,4.9
2023-02-03T08:40:51.654Z,3.4
2023-02-03T08:41:59.995Z,3.4
2023-02-03T08:43:08.312Z,3.4
2023-02-03T08:44:16.857Z,3.7
2023-02-03T08:45:25.254Z,3.7
2023-02-03T08:46:33.584Z,3.7
2023-02-03T08:47:42.113Z,3.6
2023-02-03T08:48:50.438Z,3.6
2023-02-03T08:49:58.762Z,3.6
2023-02-03T08:51:07.346Z,4
2023-02-03T08:52:17.993Z,4
2023-02-03T08:53:23.976Z,4
2023-02-03T08:54:32.490Z,4.2
2023-02-03T08:55:40.822Z,4.2
2023-02-03T08:56:49.171Z,4.2
2023-02-03T08:57:57.693Z,4.5
2023-02-03T08:59:06.011Z,4.5
2023-02-03T09:00:14.331Z,4.5
2023-02-03T09:01:22.942Z,4.8
2023-02-03T09:02:31.214Z,4.8
2023-02-03T09:03:39.523Z,4.8
2023-02-03T09:04:48.127Z,8.9
2023-02-03T09:05:56.418Z,8.9
2023-02-03T09:07:04.741Z,8.9
2023-02-03T09:08:13.293Z,7.7
2023-02-03T09:09:21.635Z,7.7
2023-02-03T09:10:30.318Z,7.7
2023-02-03T09:11:38.493Z,4.9
2023-02-03T09:12:46.816Z,4.9
2023-02-03T09:13:55.142Z,4.9
2023-02-03T09:15:03.667Z,5.3
2023-02-03T09:16:12.085Z,5.3
2023-02-03T09:17:20.340Z,5.3
2023-02-03T09:18:28.873Z,4.5
2023-02-03T09:19:37.188Z,4.5
2023-02-03T09:20:45.536Z,4.5
2023-02-03T09:21:54.080Z,4
2023-02-03T09:23:02.406Z,4
2023-02-03T09:24:10.725Z,4
2023-02-03T09:25:19.300Z,4.3
2023-02-03T09:26:27.583Z,4.3
2023-02-03T09:27:35.923Z,4.3
2023-02-03T09:28:44.476Z,8.6
2023-02-03T09:29:52.797Z,8.6
2023-02-03T09:31:01.176Z,8.6
2023-02-03T09:32:09.687Z,5.1
2023-02-03T09:33:17.998Z,5.1
2023-02-03T09:34:26.316Z,5.1
2023-02-03T09:35:34.860Z,4.8
2023-02-03T09:36:43.318Z,4.8
2023-02-03T09:37:51.514Z,4.8
2023-02-03T09:39:00.099Z,2.3
2023-02-03T09:40:08.381Z,2.3
2023-02-03T09:41:16.766Z,2.3
2023-02-03T09:42:25.308Z,3
2023-02-03T09:43:33.627Z,3
2023-02-03T09:44:41.978Z,3
2023-02-03T09:45:50.566Z,4.9
2023-02-03T09:46:58.840Z,4.9
2023-02-03T09:48:07.194Z,4.9
2023-02-03T09:49:15.722Z,9.4
2023-02-03T09:50:24.183Z,9.4
2023-02-03T09:51:32.390Z,9.4
2023-02-03T09:52:40.924Z,6.5
2023-02-03T09:53:49.240Z,6.5
2023-02-03T09:54:57.568Z,6.5
2023-02-03T09:56:06.102Z,4.1
2023-02-03T09:57:14.459Z,4.1
2023-02-03T09:58:22.751Z,4.1
2023-02-03T09:59:31.315Z,8.2
2023-02-03T10:00:39.646Z,8.2
2023-02-03T10:01:48.005Z,8.2
2023-02-03T10:02:56.641Z,3.1
2023-02-03T10:04:04.853Z,3.1
2023-02-03T10:05:13.191Z,3.1
2023-02-03T10:06:21.752Z,2.2
2023-02-03T10:07:30.117Z,2.2
2023-02-03T10:08:38.431Z,2.2
2023-02-03T10:09:46.969Z,1.9
2023-02-03T10:10:55.316Z,1.9
2023-02-03T10:12:03.644Z,1.9
2023-02-03T10:13:12.220Z,1.8
2023-02-03T10:14:20.498Z,1.8
2023-02-03T10:15:28.820Z,1.8
2023-02-03T10:16:37.401Z,1.4
2023-02-03T10:17:45.742Z,1.4
2023-02-03T10:18:54.056Z,1.4
2023-02-03T10:20:02.618Z,1.4
2023-02-03T10:21:10.969Z,1.4
2023-02-03T10:22:19.280Z,1.4
2023-02-03T10:23:27.857Z,1.6
2023-02-03T10:24:36.186Z,1.6
2023-02-03T10:25:44.532Z,1.6
2023-02-03T10:26:53.127Z,1.1
2023-02-03T10:28:01.555Z,1.1
2023-02-03T10:29:09.795Z,1.1
2023-02-03T10:30:18.297Z,1.1
2023-02-03T10:31:26.772Z,1.1
2023-02-03T10:32:34.961Z,1.1
2023-02-03T10:33:43.510Z,1.3
2023-02-03T10:34:51.825Z,1.3
2023-02-03T10:36:00.167Z,1.3
2023-02-03T10:37:08.700Z,1.4
2023-02-03T10:38:17.064Z,1.4
2023-02-03T10:39:25.369Z,1.4
2023-02-03T10:40:33.919Z,1.3
2023-02-03T10:41:42.258Z,1.3
2023-02-03T10:42:50.577Z,1.3
2023-02-03T10:43:59.132Z,0.8
2023-02-03T10:45:07.479Z,0.8
2023-02-03T10:46:15.861Z,0.8
2023-02-03T10:47:24.339Z,0.8
2023-02-03T10:48:32.669Z,0.8
2023-02-03T10:49:43.397Z,0.8
2023-02-03T10:50:50.596Z,0.6
2023-02-03T10:51:58.899Z,0.6
2023-02-03T10:53:07.219Z,0.6
2023-02-03T10:54:15.758Z,0.8
2023-02-03T10:55:24.081Z,0.8
2023-02-03T10:56:32.419Z,0.8
2023-02-03T10:57:41.000Z,1
2023-02-03T10:58:49.338Z,1
2023-02-03T10:59:57.652Z,1
2023-02-03T11:01:06.298Z,0.8
2023-02-03T11:02:14.568Z,0.8
2023-02-03T11:03:22.838Z,0.8
2023-02-03T11:04:31.373Z,0.8
2023-02-03T11:05:40.175Z,0.8
2023-02-03T11:06:48.026Z,0.8
2023-02-03T11:07:56.548Z,0.9
2023-02-03T11:09:04.868Z,0.9
2023-02-03T11:10:13.203Z,0.9
2023-02-03T11:11:23.920Z,1
2023-02-03T11:12:30.074Z,1
2023-02-03T11:13:38.416Z,1
2023-02-03T11:14:46.947Z,1
2023-02-03T11:15:55.317Z,1
2023-02-03T11:17:03.725Z,1
2023-02-03T11:18:12.139Z,0.8
2023-02-03T11:19:20.480Z,0.8
2023-02-03T11:20:29.098Z,0.8
2023-02-03T11:21:37.329Z,1
2023-02-03T11:22:45.645Z,1
2023-02-03T11:23:53.964Z,1
2023-02-03T11:25:02.501Z,0.9
2023-02-03T11:26:10.818Z,0.9
2023-02-03T11:27:19.170Z,0.9
2023-02-03T11:28:27.723Z,0.9
2023-02-03T11:29:36.064Z,0.9
2023-02-03T11:30:44.472Z,0.9
2023-02-03T11:31:53.046Z,1
2023-02-03T11:33:01.289Z,1
2023-02-03T11:34:09.572Z,1
2023-02-03T11:35:18.107Z,0.9
2023-02-03T11:36:26.435Z,0.9
2023-02-03T11:37:34.778Z,0.9
2023-02-03T11:38:43.304Z,0.8
2023-02-03T11:39:51.641Z,0.8
2023-02-03T11:40:59.960Z,0.8
2023-02-03T11:42:08.483Z,0.9
2023-02-03T11:43:16.893Z,0.9
2023-02-03T11:44:25.250Z,0.9
2023-02-03T11:45:33.796Z,0.7
2023-02-03T11:46:42.199Z,0.7
2023-02-03T11:47:50.465Z,0.7
2023-02-03T11:48:59.013Z,0.8
2023-02-03T11:50:07.316Z,0.8
2023-02-03T11:51:15.628Z,0.8
2023-02-03T11:52:24.173Z,0.6
2023-02-03T11:53:32.491Z,0.6
2023-02-03T11:54:40.833Z,0.6
2023-02-03T11:55:49.363Z,0.5
2023-02-03T11:56:57.709Z,0.5
2023-02-03T11:58:06.029Z,0.5
2023-02-03T11:59:14.566Z,0.6
2023-02-03T12:00:22.906Z,0.6
2023-02-03T12:01:31.237Z,0.6
2023-02-03T12:02:39.822Z,0.7
2023-02-03T12:03:48.086Z,0.7
2023-02-03T12:04:56.796Z,0.7
2023-02-03T12:06:04.956Z,0.6
2023-02-03T12:07:13.296Z,0.6
2023-02-03T12:08:21.640Z,0.6
2023-02-03T12:09:30.165Z,0.5
2023-02-03T12:10:38.479Z,0.5
2023-02-03T12:11:46.823Z,0.5
2023-02-03T12:12:55.351Z,0.7
2023-02-03T12:14:03.671Z,0.7
2023-02-03T12:15:12.003Z,0.7
2023-02-03T12:16:20.625Z,0.9
2023-02-03T12:17:28.875Z,0.9
2023-02-03T12:18:37.201Z,0.9
2023-02-03T12:19:45.726Z,0.8
2023-02-03T12:20:54.091Z,0.8
2023-02-03T12:22:02.414Z,0.8
2023-02-03T12:23:10.955Z,0.7
2023-02-03T12:24:19.270Z,0.7
2023-02-03T12:25:27.585Z,0.7
2023-02-03T12:26:36.127Z,0.6
2023-02-03T12:27:44.500Z,0.6
2023-02-03T12:28:52.810Z,0.6
2023-02-03T12:30:01.338Z,0.4
2023-02-03T12:31:09.772Z,0.4
2023-02-03T12:32:17.999Z,0.4
2023-02-03T12:33:26.534Z,0.4
2023-02-03T12:34:34.864Z,0.4
2023-02-03T12:35:43.176Z,0.4
2023-02-03T12:36:51.752Z,1.4
2023-02-03T12:38:00.053Z,1.4
2023-02-03T12:39:08.374Z,1.4
2023-02-03T12:40:16.900Z,0.7
2023-02-03T12:41:25.220Z,0.7
2023-02-03T12:42:33.585Z,0.7
2023-02-03T12:43:42.149Z,0.6
2023-02-03T12:44:50.465Z,0.6
2023-02-03T12:45:58.833Z,0.6
2023-02-03T12:47:07.347Z,1.2
2023-02-03T12:48:15.718Z,1.2
2023-02-03T12:49:24.020Z,1.2
2023-02-03T12:50:32.568Z,0.7
2023-02-03T12:51:40.897Z,0.7
2023-02-03T12:52:49.265Z,0.7
2023-02-03T12:53:57.782Z,0.5
2023-02-03T12:55:06.108Z,0.5
2023-02-03T12:56:14.441Z,0.5
2023-02-03T12:57:22.982Z,0.5
2023-02-03T12:58:33.607Z,0.5
2023-02-03T12:59:39.641Z,0.5
2023-02-03T13:00:48.264Z,3
2023-02-03T13:01:56.539Z,3
2023-02-03T13:03:04.857Z,3
2023-02-03T13:04:13.397Z,1.8
2023-02-03T13:05:21.721Z,1.8
2023-02-03T13:06:30.053Z,1.8
2023-02-03T13:07:38.617Z,0.4
2023-02-03T13:08:46.974Z,0.4
2023-02-03T13:09:55.282Z,0.4
2023-02-03T13:11:03.810Z,0.5
2023-02-03T13:12:12.135Z,0.5
2023-02-03T13:13:20.476Z,0.5
2023-02-03T13:14:29.029Z,0.6
2023-02-03T13:15:37.357Z,0.6
2023-02-03T13:16:45.700Z,0.6
2023-02-03T13:17:54.225Z,0.3
2023-02-03T13:19:02.559Z,0.3
2023-02-03T13:20:10.884Z,0.3
2023-02-03T13:21:19.423Z,0.5
2023-02-03T13:22:27.778Z,0.5
2023-02-03T13:23:36.141Z,0.5
2023-02-03T13:24:44.716Z,0.3
2023-02-03T13:25:53.026Z,0.3
2023-02-03T13:27:01.381Z,0.3
2023-02-03T13:28:10.019Z,0.4
2023-02-03T13:29:18.285Z,0.4
2023-02-03T13:30:26.921Z,0.4
2023-02-03T13:31:35.200Z,0.4
2023-02-03T13:32:43.482Z,0.4
2023-02-03T13:33:51.811Z,0.4
2023-02-03T13:35:00.370Z,0.3
2023-02-03T13:36:08.699Z,0.3
2023-02-03T13:37:17.013Z,0.3
2023-02-03T13:38:25.553Z,0.3
2023-02-03T13:39:33.916Z,0.3
2023-02-03T13:40:42.295Z,0.3
2023-02-03T13:41:50.834Z,0.3
2023-02-03T13:42:59.165Z,0.3
2023-02-03T13:44:07.519Z,0.3
2023-02-03T13:45:16.063Z,0.4
2023-02-03T13:46:24.429Z,0.4
2023-02-03T13:47:32.752Z,0.4
2023-02-03T13:48:41.299Z,0.4
2023-02-03T13:49:49.640Z,0.4
2023-02-03T13:50:57.973Z,0.4
2023-02-03T13:52:06.535Z,0.2
2023-02-03T13:53:14.902Z,0.2
2023-02-03T13:54:23.231Z,0.2
2023-02-03T13:55:31.800Z,0.2
2023-02-03T13:56:40.107Z,0.2
2023-02-03T13:57:48.432Z,0.2
2023-02-03T13:58:56.975Z,0.2
2023-02-03T14:00:05.314Z,0.2
2023-02-03T14:01:13.648Z,0.2
2023-02-03T14:02:22.185Z,0.2
2023-02-03T14:03:30.601Z,0.2
2023-02-03T14:04:38.936Z,0.2
2023-02-03T14:05:47.430Z,0.1
2023-02-03T14:06:55.767Z,0.1
2023-02-03T14:08:04.092Z,0.1
2023-02-03T14:09:12.681Z,0.1
2023-02-03T14:10:20.987Z,0.1
2023-02-03T14:11:29.299Z,0.1
2023-02-03T14:12:37.851Z,0.1
2023-02-03T14:13:46.145Z,0.1
2023-02-03T14:14:54.488Z,0.1
2023-02-03T14:16:03.026Z,0.2
2023-02-03T14:17:11.434Z,0.2
2023-02-03T14:18:19.699Z,0.2
2023-02-03T14:19:28.286Z,0.1
2023-02-03T14:20:36.604Z,0.1
2023-02-03T14:21:44.947Z,0.1
2023-02-03T14:22:53.483Z,0.1
2023-02-03T14:24:01.829Z,0.1
2023-02-03T14:25:10.165Z,0.1
2023-02-03T14:26:18.727Z,0.2
2023-02-03T14:27:27.078Z,0.2
2023-02-03T14:28:35.527Z,0.2
2023-02-03T14:29:44.031Z,0.2
2023-02-03T15:03:28.780Z,0
2023-02-03T15:04:37.134Z,0
2023-02-03T15:05:45.440Z,0
2023-02-03T15:06:53.986Z,0.1
2023-02-03T15:08:02.296Z,0.1
2023-02-03T15:09:10.614Z,0.1
2023-02-03T15:10:19.147Z,0.3
2023-02-03T15:11:27.467Z,0.3
2023-02-03T15:12:35.790Z,0.3
2023-02-03T15:13:44.319Z,0.2
2023-02-03T15:14:52.647Z,0.2
2023-02-03T15:16:01.122Z,0.2
2023-02-03T15:17:09.593Z,0.2
2023-02-03T15:18:17.914Z,0.2
2023-02-03T15:19:26.272Z,0.2
2023-02-03T15:20:34.791Z,1.1
2023-02-03T15:21:43.109Z,1.1
2023-02-03T15:22:51.444Z,1.1
2023-02-03T15:23:59.980Z,0.9
2023-02-03T15:25:08.308Z,0.9
2023-02-03T15:26:16.633Z,0.9
2023-02-03T15:27:25.169Z,1.1
2023-02-03T15:28:33.476Z,1.1
2023-02-03T15:29:41.807Z,1.1
2023-02-03T15:30:50.452Z,1.6
2023-02-03T15:31:58.745Z,1.6
2023-02-03T15:33:07.081Z,1.6
2023-02-03T15:34:15.635Z,1.8
2023-02-03T15:35:23.971Z,1.8
2023-02-03T15:36:32.275Z,1.8
2023-02-03T15:37:40.810Z,2
2023-02-03T15:38:49.123Z,2
2023-02-03T15:39:57.471Z,2
2023-02-03T15:41:06.003Z,1.5
2023-02-03T15:42:14.321Z,1.5
2023-02-03T15:43:22.633Z,1.5
2023-02-03T15:44:31.165Z,2.3
2023-02-03T15:45:39.480Z,2.3
2023-02-03T15:46:47.889Z,2.3
2023-02-03T15:47:56.337Z,1.9
2023-02-03T15:49:04.668Z,1.9
2023-02-03T15:50:12.976Z,1.9
2023-02-03T15:51:21.554Z,1.8
2023-02-03T15:52:29.837Z,1.8
2023-02-03T15:53:47.044Z,1.8
2023-02-03T15:54:46.712Z,1.9
2023-02-03T15:55:55.043Z,1.9
2023-02-03T15:57:03.344Z,1.9
2023-02-03T15:58:11.858Z,1.8
2023-02-03T15:59:20.212Z,1.8
2023-02-03T16:00:28.523Z,1.8
2023-02-03T16:01:37.077Z,1.9
2023-02-03T16:02:45.411Z,1.9
2023-02-03T16:03:53.694Z,1.9
2023-02-03T16:05:02.267Z,1.7
2023-02-03T16:06:10.588Z,1.7
2023-02-03T16:07:18.929Z,1.7
2023-02-03T16:08:27.446Z,2.3
2023-02-03T16:09:35.777Z,2.3
2023-02-03T16:10:44.090Z,2.3
2023-02-03T16:11:54.562Z,1.7
2023-02-03T16:13:00.963Z,1.7
2023-02-03T16:14:09.415Z,1.7
2023-02-03T16:15:18.119Z,2.3
2023-02-03T16:16:26.644Z,2.3
2023-02-03T16:17:34.903Z,2.3
2023-02-03T16:18:43.441Z,2.6